sensor_id;sensor_type;location;lat;lon;timestamp;pressure;altitude;pressure_sealevel;temperature;humidity
26978;BME280;56314;48.088;11.642;2023-04-06T00:01:10;95655.94;;;0.05;62.33
26978;BME280;56314;48.088;11.642;2023-04-06T00:03:35;95658.19;;;0.16;61.97
26978;BME280;56314;48.088;11.642;2023-04-06T00:06:01;95655.78;;;0.10;61.98
26978;BME280;56314;48.088;11.642;2023-04-06T00:08:27;95645.66;;;0.04;62.90
26978;BME280;56314;48.088;11.642;2023-04-06T00:10:52;95649.38;;;-0.05;62.18
26978;BME280;56314;48.088;11.642;2023-04-06T00:13:18;95645.66;;;0.04;62.42
26978;BME280;56314;48.088;11.642;2023-04-06T00:15:43;95651.09;;;-0.06;62.26
26978;BME280;56314;48.088;11.642;2023-04-06T00:18:09;95648.28;;;0.02;63.19
26978;BME280;56314;48.088;11.642;2023-04-06T00:20:34;95648.41;;;-0.01;62.80
26978;BME280;56314;48.088;11.642;2023-04-06T00:23:00;95640.13;;;-0.12;62.59
26978;BME280;56314;48.088;11.642;2023-04-06T00:25:25;95642.59;;;-0.09;64.00
26978;BME280;56314;48.088;11.642;2023-04-06T00:27:51;95647.03;;;-0.13;63.12
26978;BME280;56314;48.088;11.642;2023-04-06T00:30:16;95642.75;;;-0.14;63.40
26978;BME280;56314;48.088;11.642;2023-04-06T00:32:42;95648.34;;;0.01;63.29
26978;BME280;56314;48.088;11.642;2023-04-06T00:35:08;95649.28;;;-0.02;62.28
26978;BME280;56314;48.088;11.642;2023-04-06T00:37:33;95646.56;;;0.03;61.93
26978;BME280;56314;48.088;11.642;2023-04-06T00:39:59;95641.84;;;-0.13;61.81
26978;BME280;56314;48.088;11.642;2023-04-06T00:42:24;95638.69;;;-0.21;62.59
26978;BME280;56314;48.088;11.642;2023-04-06T00:44:54;95642.19;;;-0.24;62.58
26978;BME280;56314;48.088;11.642;2023-04-06T00:47:20;95650.22;;;-0.33;63.27
26978;BME280;56314;48.088;11.642;2023-04-06T00:49:46;95639.22;;;-0.40;63.51
26978;BME280;56314;48.088;11.642;2023-04-06T00:52:12;95645.03;;;-0.33;64.20
26978;BME280;56314;48.088;11.642;2023-04-06T00:54:37;95642.47;;;-0.33;63.86
26978;BME280;56314;48.088;11.642;2023-04-06T00:57:03;95642.44;;;-0.32;64.52
26978;BME280;56314;48.088;11.642;2023-04-06T00:59:28;95647.75;;;-0.36;63.20
26978;BME280;56314;48.088;11.642;2023-04-06T01:01:54;95644.25;;;-0.35;63.19
26978;BME280;56314;48.088;11.642;2023-04-06T01:04:20;95644.34;;;-0.38;63.00
26978;BME280;56314;48.088;11.642;2023-04-06T01:06:48;95646.59;;;-0.27;63.18
26978;BME280;56314;48.088;11.642;2023-04-06T01:09:13;95642.19;;;-0.24;64.03
26978;BME280;56314;48.088;11.642;2023-04-06T01:11:38;95643.03;;;-0.23;63.42
26978;BME280;56314;48.088;11.642;2023-04-06T01:14:04;95636.09;;;-0.21;64.40
26978;BME280;56314;48.088;11.642;2023-04-06T01:16:30;95641.81;;;-0.11;64.64
26978;BME280;56314;48.088;11.642;2023-04-06T01:18:55;95644.06;;;-0.29;62.69
26978;BME280;56314;48.088;11.642;2023-04-06T01:21:21;95639.22;;;-0.40;63.05
26978;BME280;56314;48.088;11.642;2023-04-06T01:23:47;95645.91;;;-0.33;63.61
26978;BME280;56314;48.088;11.642;2023-04-06T01:26:12;95643.63;;;-0.43;63.32
26978;BME280;56314;48.088;11.642;2023-04-06T01:28:38;95644.81;;;-0.54;63.34
26978;BME280;56314;48.088;11.642;2023-04-06T01:31:06;95637.16;;;-0.57;64.26
26978;BME280;56314;48.088;11.642;2023-04-06T01:33:32;95638.00;;;-0.56;64.21
26978;BME280;56314;48.088;11.642;2023-04-06T01:35:57;95634.69;;;-0.62;64.43
26978;BME280;56314;48.088;11.642;2023-04-06T01:38:23;95634.91;;;-0.68;64.55
26978;BME280;56314;48.088;11.642;2023-04-06T01:40:48;95638.38;;;-0.70;64.91
26978;BME280;56314;48.088;11.642;2023-04-06T01:43:13;95629.06;;;-0.74;64.77
26978;BME280;56314;48.088;11.642;2023-04-06T01:45:39;95628.47;;;-0.84;65.47
26978;BME280;56314;48.088;11.642;2023-04-06T01:48:04;95626.63;;;-0.79;64.34
26978;BME280;56314;48.088;11.642;2023-04-06T01:50:30;95624.00;;;-0.78;65.42
26978;BME280;56314;48.088;11.642;2023-04-06T01:52:55;95624.00;;;-0.78;65.16
26978;BME280;56314;48.088;11.642;2023-04-06T01:55:21;95630.16;;;-0.83;64.86
26978;BME280;56314;48.088;11.642;2023-04-06T01:57:46;95625.00;;;-0.83;65.49
26978;BME280;56314;48.088;11.642;2023-04-06T02:00:12;95629.66;;;-0.96;65.31
26978;BME280;56314;48.088;11.642;2023-04-06T02:02:37;95623.75;;;-1.00;65.65
26978;BME280;56314;48.088;11.642;2023-04-06T02:05:03;95616.94;;;-1.02;64.80
26978;BME280;56314;48.088;11.642;2023-04-06T02:07:28;95622.06;;;-1.01;65.87
26978;BME280;56314;48.088;11.642;2023-04-06T02:09:55;95616.28;;;-1.09;65.48
26978;BME280;56314;48.088;11.642;2023-04-06T02:12:20;95617.03;;;-1.05;66.16
26978;BME280;56314;48.088;11.642;2023-04-06T02:14:46;95612.88;;;-1.10;65.99
26978;BME280;56314;48.088;11.642;2023-04-06T02:17:11;95619.88;;;-1.15;65.83
26978;BME280;56314;48.088;11.642;2023-04-06T02:19:36;95613.03;;;-1.16;66.71
26978;BME280;56314;48.088;11.642;2023-04-06T02:22:02;95616.16;;;-1.04;66.29
26978;BME280;56314;48.088;11.642;2023-04-06T02:24:27;95617.03;;;-1.05;66.28
26978;BME280;56314;48.088;11.642;2023-04-06T02:26:53;95616.47;;;-1.15;66.29
26978;BME280;56314;48.088;11.642;2023-04-06T02:29:18;95614.56;;;-1.09;66.81
26978;BME280;56314;48.088;11.642;2023-04-06T02:31:43;95619.59;;;-1.04;66.52
26978;BME280;56314;48.088;11.642;2023-04-06T02:34:09;95611.75;;;-1.01;66.55
26978;BME280;56314;48.088;11.642;2023-04-06T02:36:37;95618.91;;;-1.11;65.68
26978;BME280;56314;48.088;11.642;2023-04-06T02:39:02;95619.03;;;-1.15;65.90
26978;BME280;56314;48.088;11.642;2023-04-06T02:41:28;95616.47;;;-1.17;65.87
26978;BME280;56314;48.088;11.642;2023-04-06T02:43:53;95617.34;;;-1.16;65.50
26978;BME280;56314;48.088;11.642;2023-04-06T02:46:19;95612.34;;;-1.22;65.82
26978;BME280;56314;48.088;11.642;2023-04-06T02:48:45;95610.78;;;-1.28;66.38
26978;BME280;56314;48.088;11.642;2023-04-06T02:51:10;95606.84;;;-1.10;67.38
26978;BME280;56314;48.088;11.642;2023-04-06T02:53:36;95611.25;;;-1.14;65.73
26978;BME280;56314;48.088;11.642;2023-04-06T02:56:01;95613.09;;;-1.19;66.44
26978;BME280;56314;48.088;11.642;2023-04-06T02:58:26;95616.66;;;-1.23;66.34
26978;BME280;56314;48.088;11.642;2023-04-06T03:00:52;95612.34;;;-1.22;66.24
26978;BME280;56314;48.088;11.642;2023-04-06T03:03:17;95614.84;;;-1.19;66.11
26978;BME280;56314;48.088;11.642;2023-04-06T03:05:42;95604.25;;;-1.09;66.26
26978;BME280;56314;48.088;11.642;2023-04-06T03:08:08;95607.78;;;-1.13;66.82
26978;BME280;56314;48.088;11.642;2023-04-06T03:10:33;95604.31;;;-1.12;66.92
26978;BME280;56314;48.088;11.642;2023-04-06T03:12:58;95617.50;;;-1.22;66.51
26978;BME280;56314;48.088;11.642;2023-04-06T03:15:24;95618.44;;;-1.25;67.68
26978;BME280;56314;48.088;11.642;2023-04-06T03:17:49;95611.78;;;-1.32;67.15
26978;BME280;56314;48.088;11.642;2023-04-06T03:20:15;95611.84;;;-1.35;67.22
26978;BME280;56314;48.088;11.642;2023-04-06T03:22:40;95611.03;;;-1.37;66.91
26978;BME280;56314;48.088;11.642;2023-04-06T03:25:06;95610.16;;;-1.36;67.43
26978;BME280;56314;48.088;11.642;2023-04-06T03:27:31;95610.28;;;-1.43;67.26
26978;BME280;56314;48.088;11.642;2023-04-06T03:29:57;95616.94;;;-1.34;67.63
26978;BME280;56314;48.088;11.642;2023-04-06T03:32:23;95613.41;;;-1.30;67.73
26978;BME280;56314;48.088;11.642;2023-04-06T03:34:48;95615.91;;;-1.27;67.58
26978;BME280;56314;48.088;11.642;2023-04-06T03:37:13;95618.34;;;-1.22;67.27
26978;BME280;56314;48.088;11.642;2023-04-06T03:39:39;95619.44;;;-1.31;66.75
26978;BME280;56314;48.088;11.642;2023-04-06T03:42:05;95615.94;;;-1.28;67.12
26978;BME280;56314;48.088;11.642;2023-04-06T03:44:31;95613.44;;;-1.31;67.49
26978;BME280;56314;48.088;11.642;2023-04-06T03:46:56;95615.09;;;-1.29;67.82
26978;BME280;56314;48.088;11.642;2023-04-06T03:49:22;95620.38;;;-1.33;67.43
26978;BME280;56314;48.088;11.642;2023-04-06T03:51:47;95622.72;;;-1.24;67.41
26978;BME280;56314;48.088;11.642;2023-04-06T03:54:13;95622.97;;;-1.33;67.12
26978;BME280;56314;48.088;11.642;2023-04-06T03:56:38;95629.13;;;-1.41;67.49
26978;BME280;56314;48.088;11.642;2023-04-06T03:59:03;95622.50;;;-1.49;67.56
26978;BME280;56314;48.088;11.642;2023-04-06T04:01:29;95632.91;;;-1.54;67.93
26978;BME280;56314;48.088;11.642;2023-04-06T04:03:54;95633.53;;;-1.44;67.90
26978;BME280;56314;48.088;11.642;2023-04-06T04:06:20;95634.41;;;-1.45;67.36
26978;BME280;56314;48.088;11.642;2023-04-06T04:08:45;95632.66;;;-1.43;67.46
26978;BME280;56314;48.088;11.642;2023-04-06T04:11:11;95632.78;;;-1.49;67.95
26978;BME280;56314;48.088;11.642;2023-04-06T04:13:36;95635.38;;;-1.49;67.65
26978;BME280;56314;48.088;11.642;2023-04-06T04:16:01;95637.34;;;-1.59;68.07
26978;BME280;56314;48.088;11.642;2023-04-06T04:18:27;95635.66;;;-1.60;68.48
26978;BME280;56314;48.088;11.642;2023-04-06T04:20:52;95640.06;;;-1.64;68.12
26978;BME280;56314;48.088;11.642;2023-04-06T04:23:17;95636.59;;;-1.63;68.29
26978;BME280;56314;48.088;11.642;2023-04-06T04:25:43;95638.38;;;-1.66;67.78
26978;BME280;56314;48.088;11.642;2023-04-06T04:28:08;95648.66;;;-1.65;68.54
26978;BME280;56314;48.088;11.642;2023-04-06T04:30:34;95647.78;;;-1.65;68.38
26978;BME280;56314;48.088;11.642;2023-04-06T04:32:59;95649.50;;;-1.64;68.54
26978;BME280;56314;48.088;11.642;2023-04-06T04:35:26;95646.84;;;-1.61;68.71
26978;BME280;56314;48.088;11.642;2023-04-06T04:37:53;95651.44;;;-1.74;68.00
26978;BME280;56314;48.088;11.642;2023-04-06T04:40:18;95648.84;;;-1.73;68.59
26978;BME280;56314;48.088;11.642;2023-04-06T04:42:43;95653.25;;;-1.78;68.73
26978;BME280;56314;48.088;11.642;2023-04-06T04:45:09;95653.25;;;-1.78;69.05
26978;BME280;56314;48.088;11.642;2023-04-06T04:47:35;95649.09;;;-1.83;68.82
26978;BME280;56314;48.088;11.642;2023-04-06T04:50:00;95653.41;;;-1.84;68.92
26978;BME280;56314;48.088;11.642;2023-04-06T04:52:25;95650.03;;;-1.86;69.49
26978;BME280;56314;48.088;11.642;2023-04-06T04:54:51;95646.63;;;-1.88;69.93
26978;BME280;56314;48.088;11.642;2023-04-06T04:57:16;95649.06;;;-1.82;69.45
26978;BME280;56314;48.088;11.642;2023-04-06T04:59:42;95656.50;;;-1.69;70.32
26978;BME280;56314;48.088;11.642;2023-04-06T05:02:08;95651.22;;;-1.65;70.16
26978;BME280;56314;48.088;11.642;2023-04-06T05:04:33;95650.22;;;-1.59;69.87
26978;BME280;56314;48.088;11.642;2023-04-06T05:07:16;95646.78;;;-1.58;68.97
26978;BME280;56314;48.088;11.642;2023-04-06T05:09:43;95650.06;;;-1.53;68.99
26978;BME280;56314;48.088;11.642;2023-04-06T05:12:09;95648.28;;;-1.51;68.67
26978;BME280;56314;48.088;11.642;2023-04-06T05:14:35;95646.53;;;-1.49;68.83
26978;BME280;56314;48.088;11.642;2023-04-06T05:17:00;95644.66;;;-1.42;67.98
26978;BME280;56314;48.088;11.642;2023-04-06T05:19:26;95652.13;;;-1.33;68.59
26978;BME280;56314;48.088;11.642;2023-04-06T05:21:51;95647.66;;;-1.26;67.62
26978;BME280;56314;48.088;11.642;2023-04-06T05:24:17;95649.22;;;-1.20;67.88
26978;BME280;56314;48.088;11.642;2023-04-06T05:26:42;95648.41;;;-1.21;67.54
26978;BME280;56314;48.088;11.642;2023-04-06T05:29:08;95657.59;;;-1.12;67.97
26978;BME280;56314;48.088;11.642;2023-04-06T05:31:33;95653.78;;;-0.99;67.22
26978;BME280;56314;48.088;11.642;2023-04-06T05:33:58;95647.41;;;-0.85;65.98
26978;BME280;56314;48.088;11.642;2023-04-06T05:36:24;95646.91;;;-0.67;65.75
26978;BME280;56314;48.088;11.642;2023-04-06T05:38:50;95647.59;;;-0.62;66.13
26978;BME280;56314;48.088;11.642;2023-04-06T05:41:16;95649.53;;;-0.38;65.74
26978;BME280;56314;48.088;11.642;2023-04-06T05:43:41;95649.84;;;-0.21;65.11
26978;BME280;56314;48.088;11.642;2023-04-06T05:46:07;95650.09;;;0.00;63.99
26978;BME280;56314;48.088;11.642;2023-04-06T05:48:32;95654.31;;;0.29;62.85
26978;BME280;56314;48.088;11.642;2023-04-06T05:50:58;95650.66;;;0.62;63.09
26978;BME280;56314;48.088;11.642;2023-04-06T05:53:23;95653.59;;;0.76;60.80
26978;BME280;56314;48.088;11.642;2023-04-06T05:55:51;95654.63;;;0.98;61.09
26978;BME280;56314;48.088;11.642;2023-04-06T05:58:16;95656.31;;;1.22;59.83
26978;BME280;56314;48.088;11.642;2023-04-06T06:00:42;95660.78;;;1.43;58.45
26978;BME280;56314;48.088;11.642;2023-04-06T06:03:08;95652.47;;;1.80;57.59
26978;BME280;56314;48.088;11.642;2023-04-06T06:05:34;95643.91;;;2.23;57.05
26978;BME280;56314;48.088;11.642;2023-04-06T06:07:59;95639.41;;;2.49;55.21
26978;BME280;56314;48.088;11.642;2023-04-06T06:10:27;95644.13;;;3.01;54.33
26978;BME280;56314;48.088;11.642;2023-04-06T06:12:53;95638.88;;;3.23;53.17
26978;BME280;56314;48.088;11.642;2023-04-06T06:15:18;95633.22;;;3.34;53.33
26978;BME280;56314;48.088;11.642;2023-04-06T06:17:44;95638.97;;;3.41;52.74
26978;BME280;56314;48.088;11.642;2023-04-06T06:20:09;95637.88;;;3.65;52.08
26978;BME280;56314;48.088;11.642;2023-04-06T06:22:35;95635.88;;;3.70;51.87
26978;BME280;56314;48.088;11.642;2023-04-06T06:25:00;95629.41;;;3.79;52.06
26978;BME280;56314;48.088;11.642;2023-04-06T06:27:25;95628.72;;;3.95;51.00
26978;BME280;56314;48.088;11.642;2023-04-06T06:29:51;95633.63;;;4.38;50.86
26978;BME280;56314;48.088;11.642;2023-04-06T06:32:17;95637.81;;;4.58;50.26
26978;BME280;56314;48.088;11.642;2023-04-06T06:34:42;95630.03;;;4.75;49.20
26978;BME280;56314;48.088;11.642;2023-04-06T06:37:07;95630.03;;;4.93;48.41
26978;BME280;56314;48.088;11.642;2023-04-06T06:39:33;95633.16;;;5.33;48.66
26978;BME280;56314;48.088;11.642;2023-04-06T06:41:58;95635.44;;;5.39;47.97
26978;BME280;56314;48.088;11.642;2023-04-06T06:44:26;95622.38;;;5.89;46.76
26978;BME280;56314;48.088;11.642;2023-04-06T06:46:52;95627.66;;;6.36;45.40
26978;BME280;56314;48.088;11.642;2023-04-06T06:49:17;95625.38;;;6.90;44.55
26978;BME280;56314;48.088;11.642;2023-04-06T06:51:43;95637.47;;;7.36;43.14
26978;BME280;56314;48.088;11.642;2023-04-06T06:54:09;95620.28;;;8.45;40.87
26978;BME280;56314;48.088;11.642;2023-04-06T06:56:35;95622.00;;;9.38;39.56
26978;BME280;56314;48.088;11.642;2023-04-06T06:59:02;95620.50;;;9.60;38.07
26978;BME280;56314;48.088;11.642;2023-04-06T07:01:27;95621.94;;;9.77;37.57
26978;BME280;56314;48.088;11.642;2023-04-06T07:03:53;95631.25;;;8.65;38.79
26978;BME280;56314;48.088;11.642;2023-04-06T07:06:18;95633.44;;;8.43;39.69
26978;BME280;56314;48.088;11.642;2023-04-06T07:08:43;95625.44;;;8.87;38.51
26978;BME280;56314;48.088;11.642;2023-04-06T07:11:09;95631.31;;;9.55;37.04
26978;BME280;56314;48.088;11.642;2023-04-06T07:13:34;95614.16;;;10.38;36.03
26978;BME280;56314;48.088;11.642;2023-04-06T07:15:59;95613.91;;;10.66;35.00
26978;BME280;56314;48.088;11.642;2023-04-06T07:18:25;95616.31;;;11.16;35.19
26978;BME280;56314;48.088;11.642;2023-04-06T07:20:50;95623.97;;;10.47;36.30
26978;BME280;56314;48.088;11.642;2023-04-06T07:23:15;95610.97;;;10.82;34.83
26978;BME280;56314;48.088;11.642;2023-04-06T07:25:41;95620.13;;;10.03;36.27
26978;BME280;56314;48.088;11.642;2023-04-06T07:28:07;95627.56;;;9.33;37.48
26978;BME280;56314;48.088;11.642;2023-04-06T07:30:32;95631.44;;;9.02;38.00
26978;BME280;56314;48.088;11.642;2023-04-06T07:32:57;95632.97;;;8.91;38.05
26978;BME280;56314;48.088;11.642;2023-04-06T07:35:25;95627.34;;;9.49;37.39
26978;BME280;56314;48.088;11.642;2023-04-06T07:37:51;95622.69;;;10.53;35.71
26978;BME280;56314;48.088;11.642;2023-04-06T07:40:17;95619.94;;;10.90;33.15
26978;BME280;56314;48.088;11.642;2023-04-06T07:42:43;95625.50;;;11.10;32.42
26978;BME280;56314;48.088;11.642;2023-04-06T07:45:08;95615.91;;;10.98;32.49
26978;BME280;56314;48.088;11.642;2023-04-06T07:47:34;95618.00;;;11.39;32.62
26978;BME280;56314;48.088;11.642;2023-04-06T07:50:00;95619.91;;;11.37;32.59
26978;BME280;56314;48.088;11.642;2023-04-06T07:52:25;95611.19;;;11.94;32.35
26978;BME280;56314;48.088;11.642;2023-04-06T07:54:51;95612.53;;;11.99;30.96
26978;BME280;56314;48.088;11.642;2023-04-06T07:57:16;95604.84;;;12.19;31.99
26978;BME280;56314;48.088;11.642;2023-04-06T07:59:42;95604.13;;;12.82;31.74
26978;BME280;56314;48.088;11.642;2023-04-06T08:02:07;95603.75;;;13.08;29.22
26978;BME280;56314;48.088;11.642;2023-04-06T08:04:32;95601.44;;;12.72;29.11
26978;BME280;56314;48.088;11.642;2023-04-06T08:06:58;95601.16;;;12.10;29.55
26978;BME280;56314;48.088;11.642;2023-04-06T08:09:23;95607.97;;;11.90;30.37
26978;BME280;56314;48.088;11.642;2023-04-06T08:11:48;95610.00;;;12.09;29.40
26978;BME280;56314;48.088;11.642;2023-04-06T08:14:14;95603.97;;;12.62;28.52
26978;BME280;56314;48.088;11.642;2023-04-06T08:16:41;95607.81;;;12.58;28.10
26978;BME280;56314;48.088;11.642;2023-04-06T08:19:06;95610.38;;;12.49;28.33
26978;BME280;56314;48.088;11.642;2023-04-06T08:21:37;95605.13;;;12.70;26.44
26978;BME280;56314;48.088;11.642;2023-04-06T08:24:03;95608.50;;;12.93;27.11
26978;BME280;56314;48.088;11.642;2023-04-06T08:26:29;95610.16;;;13.36;25.99
26978;BME280;56314;48.088;11.642;2023-04-06T08:28:54;95615.94;;;13.42;26.06
26978;BME280;56314;48.088;11.642;2023-04-06T08:31:20;95609.78;;;13.62;25.49
26978;BME280;56314;48.088;11.642;2023-04-06T08:33:45;95605.34;;;12.99;25.06
26978;BME280;56314;48.088;11.642;2023-04-06T08:36:12;95600.69;;;13.76;24.92
26978;BME280;56314;48.088;11.642;2023-04-06T08:38:38;95601.25;;;13.80;24.72
26978;BME280;56314;48.088;11.642;2023-04-06T08:41:11;95598.19;;;14.35;24.82
26978;BME280;56314;48.088;11.642;2023-04-06T08:43:46;95603.91;;;14.50;25.17
26978;BME280;56314;48.088;11.642;2023-04-06T08:46:12;95603.44;;;14.25;24.81
26978;BME280;56314;48.088;11.642;2023-04-06T08:48:41;95598.94;;;14.86;25.08
26978;BME280;56314;48.088;11.642;2023-04-06T08:51:08;95592.59;;;15.36;24.20
26978;BME280;56314;48.088;11.642;2023-04-06T08:53:34;95595.78;;;15.78;23.08
26978;BME280;56314;48.088;11.642;2023-04-06T08:56:00;95586.66;;;16.00;23.31
26978;BME280;56314;48.088;11.642;2023-04-06T08:58:28;95590.44;;;16.43;22.65
26978;BME280;56314;48.088;11.642;2023-04-06T09:00:55;95589.63;;;16.61;22.10
26978;BME280;56314;48.088;11.642;2023-04-06T09:03:21;95577.13;;;16.53;22.32
26978;BME280;56314;48.088;11.642;2023-04-06T09:05:46;95577.03;;;16.99;22.08
26978;BME280;56314;48.088;11.642;2023-04-06T09:08:13;95575.84;;;17.73;21.86
26978;BME280;56314;48.088;11.642;2023-04-06T09:10:40;95572.78;;;17.59;21.09
26978;BME280;56314;48.088;11.642;2023-04-06T09:13:06;95577.91;;;17.87;21.16
26978;BME280;56314;48.088;11.642;2023-04-06T09:15:33;95565.13;;;18.25;20.26
26978;BME280;56314;48.088;11.642;2023-04-06T09:17:58;95566.50;;;18.38;19.95
26978;BME280;56314;48.088;11.642;2023-04-06T09:20:25;95564.41;;;18.07;20.42
26978;BME280;56314;48.088;11.642;2023-04-06T09:22:51;95568.53;;;18.52;20.99
26978;BME280;56314;48.088;11.642;2023-04-06T09:25:21;95554.91;;;19.21;19.90
26978;BME280;56314;48.088;11.642;2023-04-06T09:27:48;95559.47;;;19.61;19.97
26978;BME280;56314;48.088;11.642;2023-04-06T09:30:15;95563.44;;;19.90;19.90
26978;BME280;56314;48.088;11.642;2023-04-06T09:32:51;95562.22;;;20.01;18.61
26978;BME280;56314;48.088;11.642;2023-04-06T09:35:17;95565.69;;;19.45;19.92
26978;BME280;56314;48.088;11.642;2023-04-06T09:37:46;95560.34;;;19.45;20.26
26978;BME280;56314;48.088;11.642;2023-04-06T09:40:13;95563.72;;;19.30;18.67
26978;BME280;56314;48.088;11.642;2023-04-06T09:42:41;95559.91;;;19.16;19.25
26978;BME280;56314;48.088;11.642;2023-04-06T09:45:07;95563.97;;;18.36;19.65
26978;BME280;56314;48.088;11.642;2023-04-06T09:47:33;95561.91;;;17.97;21.09
26978;BME280;56314;48.088;11.642;2023-04-06T09:50:02;95564.97;;;17.49;22.44
26978;BME280;56314;48.088;11.642;2023-04-06T09:52:33;95556.56;;;18.89;21.06
26978;BME280;56314;48.088;11.642;2023-04-06T09:55:04;95547.25;;;19.35;20.47
26978;BME280;56314;48.088;11.642;2023-04-06T09:57:38;95556.72;;;18.88;19.85
26978;BME280;56314;48.088;11.642;2023-04-06T10:00:11;95558.97;;;17.47;22.20
26978;BME280;56314;48.088;11.642;2023-04-06T10:08:09;95555.81;;;15.81;23.88
26978;BME280;56314;48.088;11.642;2023-04-06T10:10:35;95558.66;;;15.97;24.67
26978;BME280;56314;48.088;11.642;2023-04-06T10:13:01;95551.97;;;16.57;23.27
26978;BME280;56314;48.088;11.642;2023-04-06T10:15:28;95543.38;;;17.79;22.90
26978;BME280;56314;48.088;11.642;2023-04-06T10:17:55;95548.25;;;18.92;21.52
26978;BME280;56314;48.088;11.642;2023-04-06T10:23:24;95543.63;;;18.02;21.39
26978;BME280;56314;48.088;11.642;2023-04-06T10:25:56;95544.75;;;17.57;22.04
26978;BME280;56314;48.088;11.642;2023-04-06T10:28:22;95539.25;;;17.93;20.84
26978;BME280;56314;48.088;11.642;2023-04-06T10:30:48;95524.47;;;18.58;20.93
26978;BME280;56314;48.088;11.642;2023-04-06T10:33:15;95529.97;;;18.73;20.56
26978;BME280;56314;48.088;11.642;2023-04-06T10:35:41;95528.59;;;18.27;21.03
26978;BME280;56314;48.088;11.642;2023-04-06T10:38:07;95540.94;;;17.25;20.89
26978;BME280;56314;48.088;11.642;2023-04-06T10:40:35;95540.75;;;16.82;22.38
26978;BME280;56314;48.088;11.642;2023-04-06T10:43:10;95533.94;;;16.61;21.15
26978;BME280;56314;48.088;11.642;2023-04-06T10:45:36;95535.09;;;15.66;23.15
26978;BME280;56314;48.088;11.642;2023-04-06T10:48:13;95542.91;;;15.30;23.73
26978;BME280;56314;48.088;11.642;2023-04-06T10:50:39;95554.97;;;14.85;24.99
26978;BME280;56314;48.088;11.642;2023-04-06T10:53:05;95548.69;;;14.57;24.42
26978;BME280;56314;48.088;11.642;2023-04-06T10:55:31;95551.28;;;13.98;25.04
26978;BME280;56314;48.088;11.642;2023-04-06T10:57:57;95543.59;;;13.75;26.73
26978;BME280;56314;48.088;11.642;2023-04-06T11:00:23;95539.06;;;15.05;25.36
26978;BME280;56314;48.088;11.642;2023-04-06T11:02:48;95536.22;;;16.20;23.16
26978;BME280;56314;48.088;11.642;2023-04-06T11:05:14;95537.09;;;15.92;23.51
26978;BME280;56314;48.088;11.642;2023-04-06T11:07:41;95536.59;;;14.84;23.99
26978;BME280;56314;48.088;11.642;2023-04-06T11:10:07;95537.97;;;14.29;24.90
26978;BME280;56314;48.088;11.642;2023-04-06T11:12:33;95527.13;;;14.22;26.28
26978;BME280;56314;48.088;11.642;2023-04-06T11:15:03;95522.09;;;14.88;25.48
26978;BME280;56314;48.088;11.642;2023-04-06T11:17:34;95520.78;;;15.21;25.30
26978;BME280;56314;48.088;11.642;2023-04-06T11:20:00;95520.53;;;15.80;25.68
26978;BME280;56314;48.088;11.642;2023-04-06T11:22:26;95516.81;;;16.19;24.10
26978;BME280;56314;48.088;11.642;2023-04-06T11:24:52;95513.06;;;16.58;22.63
26978;BME280;56314;48.088;11.642;2023-04-06T11:27:18;95499.38;;;16.26;23.62
26978;BME280;56314;48.088;11.642;2023-04-06T11:29:44;95500.38;;;15.42;23.85
26978;BME280;56314;48.088;11.642;2023-04-06T11:32:20;95510.69;;;15.45;23.57
26978;BME280;56314;48.088;11.642;2023-04-06T11:34:47;95501.84;;;15.82;24.18
26978;BME280;56314;48.088;11.642;2023-04-06T11:37:13;95498.13;;;16.57;24.43
26978;BME280;56314;48.088;11.642;2023-04-06T11:39:40;95494.56;;;16.92;25.28
26978;BME280;56314;48.088;11.642;2023-04-06T11:42:06;95499.81;;;16.58;23.77
26978;BME280;56314;48.088;11.642;2023-04-06T11:44:38;95487.84;;;16.80;23.95
26978;BME280;56314;48.088;11.642;2023-04-06T11:47:06;95490.72;;;16.87;23.63
26978;BME280;56314;48.088;11.642;2023-04-06T11:49:33;95483.72;;;17.04;22.54
26978;BME280;56314;48.088;11.642;2023-04-06T11:52:00;95482.81;;;17.13;23.68
26978;BME280;56314;48.088;11.642;2023-04-06T11:54:44;95480.72;;;17.25;23.00
26978;BME280;56314;48.088;11.642;2023-04-06T11:57:09;95472.84;;;17.15;24.60
26978;BME280;56314;48.088;11.642;2023-04-06T11:59:35;95481.31;;;16.92;23.59
26978;BME280;56314;48.088;11.642;2023-04-06T12:02:01;95482.84;;;16.33;24.45
26978;BME280;56314;48.088;11.642;2023-04-06T12:04:28;95478.75;;;16.20;24.79
26978;BME280;56314;48.088;11.642;2023-04-06T12:06:53;95481.34;;;16.30;23.67
26978;BME280;56314;48.088;11.642;2023-04-06T12:09:19;95477.25;;;15.44;23.86
26978;BME280;56314;48.088;11.642;2023-04-06T12:11:45;95481.91;;;15.32;24.82
26978;BME280;56314;48.088;11.642;2023-04-06T12:14:10;95473.25;;;15.02;23.51
26978;BME280;56314;48.088;11.642;2023-04-06T12:16:36;95481.47;;;14.99;25.25
26978;BME280;56314;48.088;11.642;2023-04-06T12:19:01;95482.34;;;15.27;24.76
26978;BME280;56314;48.088;11.642;2023-04-06T12:21:27;95473.38;;;15.66;24.67
26978;BME280;56314;48.088;11.642;2023-04-06T12:23:54;95477.47;;;16.06;23.83
26978;BME280;56314;48.088;11.642;2023-04-06T12:26:20;95470.97;;;15.73;22.80
26978;BME280;56314;48.088;11.642;2023-04-06T12:28:46;95470.50;;;15.77;22.42
26978;BME280;56314;48.088;11.642;2023-04-06T12:31:17;95468.78;;;16.14;24.58
26978;BME280;56314;48.088;11.642;2023-04-06T12:33:46;95462.53;;;16.59;23.33
26978;BME280;56314;48.088;11.642;2023-04-06T12:36:15;95457.69;;;16.81;23.02
26978;BME280;56314;48.088;11.642;2023-04-06T12:38:47;95453.03;;;16.75;23.81
26978;BME280;56314;48.088;11.642;2023-04-06T12:41:13;95459.41;;;16.90;23.21
26978;BME280;56314;48.088;11.642;2023-04-06T12:43:39;95452.56;;;16.80;23.77
26978;BME280;56314;48.088;11.642;2023-04-06T12:46:05;95444.88;;;16.95;23.72
26978;BME280;56314;48.088;11.642;2023-04-06T12:48:30;95443.31;;;17.10;23.08
26978;BME280;56314;48.088;11.642;2023-04-06T12:51:00;95441.56;;;17.19;22.10
26978;BME280;56314;48.088;11.642;2023-04-06T12:53:25;95442.47;;;17.10;23.94
26978;BME280;56314;48.088;11.642;2023-04-06T12:55:52;95442.63;;;17.00;22.91